Time;durP1;ratioP1;P1;durP2;ratioP2;P2;SDS_P1;SDS_P2;PMS_P1;PMS_P2;Temp;Humidity;BMP_temperature;BMP_pressure;BME280_temperature;BME280_humidity;BME280_pressure;Samples;Min_cycle;Max_cycle;Signal;HPM_P1;HPM_P2
2021/12/16 00:09:42;;;;;;;26.90;8.40;;;8.20;99.90;;;;;;5096150;28;20455;-88
2021/12/16 00:29:41;;;;;;;24.50;7.70;;;8.20;99.90;;;;;;5103411;28;20078;-88
2021/12/16 00:31:56;;;;;;;20.05;7.65;;;8.20;99.90;;;;;;5087550;28;20469;-87
2021/12/16 00:34:29;;;;;;;23.30;8.13;;;8.10;99.90;;;;;;5101968;28;20457;-87
2021/12/16 00:36:55;;;;;;;20.20;8.45;;;8.20;99.90;;;;;;5094949;28;20703;-87
2021/12/16 00:39:29;;;;;;;27.17;8.00;;;8.20;99.90;;;;;;5091690;27;20039;-87
2021/12/16 00:42:01;;;;;;;22.10;7.80;;;8.40;99.90;;;;;;5081822;27;20495;-87
2021/12/16 00:47:28;;;;;;;30.50;8.80;;;8.20;99.90;;;;;;5098391;28;20075;-88
2021/12/16 00:49:53;;;;;;;;;;;8.20;99.90;;;;;;5108536;27;20422;-87
2021/12/16 00:55:27;;;;;;;22.50;7.85;;;8.30;99.90;;;;;;5091278;28;20459;-87
2021/12/16 00:57:53;;;;;;;22.58;7.72;;;8.20;99.90;;;;;;5082984;28;20043;-88
2021/12/16 01:00:24;;;;;;;24.52;7.63;;;8.20;99.90;;;;;;5084669;28;20121;-87
2021/12/16 01:03:17;;;;;;;21.80;7.50;;;8.20;99.90;;;;;;5094025;28;20055;-88
2021/12/16 01:06:04;;;;;;;21.00;7.40;;;8.20;99.90;;;;;;5082520;28;20094;-87
2021/12/16 01:36:18;;;;;;;20.95;6.93;;;8.30;99.90;;;;;;5118812;27;20180;-87
2021/12/16 01:47:21;;;;;;;19.77;6.72;;;8.30;99.90;;;;;;5097200;27;20101;-87
2021/12/16 01:49:56;;;;;;;23.45;8.20;;;8.30;99.90;;;;;;5098694;28;20077;-88
2021/12/16 01:55:12;;;;;;;21.25;7.28;;;8.00;99.90;;;;;;5096344;28;20047;-88
2021/12/16 01:57:44;;;;;;;27.45;8.13;;;8.30;99.90;;;;;;5084160;27;20043;-88
2021/12/16 02:00:53;;;;;;;25.75;7.78;;;8.40;99.90;;;;;;5086919;28;20376;-88
2021/12/16 02:03:25;;;;;;;22.17;7.20;;;8.40;99.90;;;;;;5087966;27;20035;-88
2021/12/16 02:06:00;;;;;;;23.05;7.88;;;8.40;99.90;;;;;;5097796;27;20035;-87
2021/12/16 02:08:32;;;;;;;24.40;7.80;;;8.40;99.90;;;;;;5088050;27;20417;-87
2021/12/16 02:11:23;;;;;;;17.33;7.28;;;8.40;99.90;;;;;;5115013;27;20449;-87
2021/12/16 02:37:45;;;;;;;20.20;6.78;;;8.40;99.90;;;;;;5108849;28;20126;-87
2021/12/16 02:40:12;;;;;;;17.98;6.75;;;8.40;99.90;;;;;;5096463;28;20698;-87
2021/12/16 02:42:56;;;;;;;19.60;8.27;;;8.30;99.90;;;;;;5104935;28;20131;-88
2021/12/16 02:50:54;;;;;;;23.35;7.50;;;8.30;99.90;;;;;;5101724;27;20086;-87
2021/12/16 02:53:20;;;;;;;17.23;7.13;;;8.30;99.90;;;;;;5109652;27;20445;-87
2021/12/16 02:55:46;;;;;;;21.52;7.93;;;8.30;99.90;;;;;;5095082;28;20044;-87
2021/12/16 02:58:15;;;;;;;17.35;7.30;;;8.30;99.90;;;;;;5076169;28;20050;-86
2021/12/16 03:00:48;;;;;;;23.08;9.18;;;8.20;99.90;;;;;;5079927;28;20392;-86
2021/12/16 03:03:15;;;;;;;23.65;7.93;;;8.20;99.90;;;;;;5079413;27;20031;-87
2021/12/16 03:05:42;;;;;;;19.10;7.28;;;8.20;99.90;;;;;;5110699;28;20083;-86
2021/12/16 03:08:08;;;;;;;23.40;7.20;;;8.10;99.90;;;;;;5087128;27;20364;-87
2021/12/16 03:13:28;;;;;;;14.98;6.90;;;8.20;99.90;;;;;;5084953;27;20046;-87
2021/12/16 03:19:08;;;;;;;29.70;7.65;;;8.40;99.90;;;;;;5105032;28;20590;-86
2021/12/16 03:21:41;;;;;;;14.77;6.68;;;7.90;99.90;;;;;;5076794;28;20040;-86
2021/12/16 03:37:40;;;;;;;20.25;7.20;;;7.50;99.90;;;;;;5105748;28;20051;-87
2021/12/16 03:40:10;;;;;;;21.25;7.22;;;7.50;99.90;;;;;;5075050;28;20547;-86
2021/12/16 03:42:50;;;;;;;23.92;7.45;;;7.50;99.90;;;;;;5092412;27;20047;-87
2021/12/16 03:48:38;;;;;;;;;;;7.40;99.90;;;;;;5106573;28;20062;-87
2021/12/16 03:51:16;;;;;;;18.63;7.10;;;7.40;99.90;;;;;;5082281;27;19919;-87
2021/12/16 03:53:44;;;;;;;21.08;7.78;;;7.40;99.90;;;;;;5087503;27;20028;-88
2021/12/16 03:56:11;;;;;;;19.95;7.95;;;7.30;99.90;;;;;;5090838;28;20043;-87
2021/12/16 03:58:39;;;;;;;22.23;7.82;;;7.30;99.90;;;;;;5084583;28;20051;-88
2021/12/16 04:01:16;;;;;;;19.33;8.05;;;7.20;99.90;;;;;;5079900;28;20514;-88
2021/12/16 04:03:41;;;;;;;20.77;8.00;;;7.20;99.90;;;;;;5087952;27;20058;-87
2021/12/16 04:06:11;;;;;;;21.48;7.72;;;7.20;99.90;;;;;;5087701;28;20503;-87
2021/12/16 04:08:37;;;;;;;23.83;7.70;;;7.10;99.90;;;;;;5082281;28;20043;-87
2021/12/16 04:11:12;;;;;;;22.30;7.82;;;7.10;99.90;;;;;;5072644;28;20046;-86
2021/12/16 04:13:54;;;;;;;22.42;7.80;;;7.10;99.90;;;;;;5083580;28;20129;-87
2021/12/16 04:16:51;;;;;;;18.90;7.28;;;7.00;99.90;;;;;;5090932;28;20039;-88
2021/12/16 04:19:25;;;;;;;23.15;9.25;;;7.60;99.90;;;;;;5098001;28;20048;-87
2021/12/16 04:22:05;;;;;;;23.48;8.35;;;6.90;99.90;;;;;;5088299;28;20050;-87
2021/12/16 04:24:31;;;;;;;20.23;7.32;;;6.90;99.90;;;;;;5081059;28;20096;-87
2021/12/16 04:26:58;;;;;;;30.30;8.27;;;7.30;99.90;;;;;;5081095;28;20098;-88
2021/12/16 04:29:24;;;;;;;22.50;7.95;;;6.80;99.90;;;;;;5083868;28;20051;-87
2021/12/16 04:31:52;;;;;;;21.58;8.02;;;6.80;99.90;;;;;;5088861;28;20114;-87
2021/12/16 04:34:18;;;;;;;26.02;8.85;;;7.40;99.90;;;;;;5088436;28;20065;-88
2021/12/16 04:36:44;;;;;;;23.75;7.50;;;6.70;99.90;;;;;;5081555;28;20088;-88
2021/12/16 04:39:15;;;;;;;25.88;7.95;;;6.70;99.90;;;;;;5095301;28;20483;-88
2021/12/16 04:41:42;;;;;;;23.67;8.35;;;7.00;99.90;;;;;;5084979;28;20044;-88
2021/12/16 04:44:11;;;;;;;24.38;7.85;;;6.70;99.90;;;;;;5089555;28;20071;-88
2021/12/16 04:46:37;;;;;;;20.02;7.68;;;6.70;99.90;;;;;;5108914;28;20438;-88
2021/12/16 04:49:05;;;;;;;21.95;7.63;;;6.70;99.90;;;;;;5100015;28;20626;-89
2021/12/16 04:51:34;;;;;;;23.85;8.18;;;6.60;99.90;;;;;;5088531;28;20062;-89
2021/12/16 04:54:00;;;;;;;20.08;7.75;;;7.40;99.90;;;;;;5078007;28;20039;-89
2021/12/16 04:56:27;;;;;;;26.02;7.70;;;7.00;99.90;;;;;;5100839;28;20131;-89
2021/12/16 04:58:54;;;;;;;21.17;7.63;;;6.50;99.90;;;;;;5090089;28;20457;-88
2021/12/16 05:01:21;;;;;;;18.85;7.68;;;6.60;99.90;;;;;;5083028;28;20378;-88
2021/12/16 05:03:47;;;;;;;19.15;7.50;;;6.80;99.90;;;;;;5088629;28;20046;-89
2021/12/16 05:06:14;;;;;;;19.83;7.63;;;6.80;99.90;;;;;;5096875;28;20047;-88
2021/12/16 05:08:42;;;;;;;17.83;6.82;;;7.10;99.90;;;;;;5084949;28;20059;-89
2021/12/16 05:11:13;;;;;;;20.27;7.63;;;7.20;99.90;;;;;;5091731;28;20031;-88
2021/12/16 05:13:40;;;;;;;19.83;7.15;;;6.30;99.90;;;;;;5118182;28;20672;-89
2021/12/16 05:16:06;;;;;;;23.75;8.15;;;6.40;99.90;;;;;;5089831;28;20039;-88
2021/12/16 05:18:36;;;;;;;19.05;8.23;;;7.30;99.90;;;;;;5099416;28;20075;-89
2021/12/16 05:21:06;;;;;;;26.45;8.38;;;6.20;99.90;;;;;;5085113;28;20120;-89
2021/12/16 05:26:20;;;;;;;21.10;8.57;;;7.40;99.90;;;;;;5099594;28;20083;-89
2021/12/16 05:28:55;;;;;;;30.45;8.48;;;7.40;99.90;;;;;;5094240;27;20046;-89
2021/12/16 05:31:24;;;;;;;25.02;8.07;;;6.60;99.90;;;;;;5113821;27;20054;-88
2021/12/16 05:33:53;;;;;;;22.27;8.00;;;7.30;99.90;;;;;;5096669;27;20055;-89
2021/12/16 05:36:20;;;;;;;24.23;7.75;;;7.50;99.90;;;;;;5088791;28;20040;-89
2021/12/16 05:38:47;;;;;;;25.00;8.73;;;7.00;99.90;;;;;;5093916;28;20058;-90
2021/12/16 05:41:15;;;;;;;13.93;7.03;;;7.10;99.90;;;;;;5083086;28;20054;-90
2021/12/16 05:43:41;;;;;;;22.58;7.93;;;7.30;99.90;;;;;;5089316;27;20040;-89
2021/12/16 05:46:09;;;;;;;18.88;7.35;;;6.40;99.90;;;;;;5080988;27;20043;-90
2021/12/16 05:48:37;;;;;;;19.00;7.70;;;7.30;99.90;;;;;;5094544;27;20444;-90
2021/12/16 05:51:08;;;;;;;16.92;7.13;;;6.90;99.90;;;;;;5087154;27;20058;-90
2021/12/16 05:53:34;;;;;;;17.50;7.37;;;7.20;99.90;;;;;;5090339;27;20047;-90
2021/12/16 05:56:00;;;;;;;19.05;7.70;;;6.30;99.90;;;;;;5083954;28;20293;-90
2021/12/16 05:58:27;;;;;;;16.90;6.60;;;6.90;99.90;;;;;;5080511;28;20071;-91
2021/12/16 06:00:56;;;;;;;17.48;7.57;;;6.80;99.90;;;;;;5082234;28;20034;-89
2021/12/16 06:03:23;;;;;;;17.48;7.93;;;6.60;99.90;;;;;;5097560;27;20039;-90
2021/12/16 06:05:51;;;;;;;19.67;7.57;;;6.30;99.90;;;;;;5118589;27;20043;-90
2021/12/16 06:08:17;;;;;;;21.45;8.50;;;6.30;99.90;;;;;;5097842;27;20039;-90
2021/12/16 06:13:09;;;;;;;25.25;9.68;;;7.00;99.90;;;;;;5108838;27;20027;-90
2021/12/16 06:26:52;;;;;;;20.00;7.85;;;6.20;99.90;;;;;;5110172;28;20040;-90
2021/12/16 06:29:18;;;;;;;22.77;8.98;;;6.40;99.90;;;;;;5088295;27;20035;-89
2021/12/16 06:31:45;;;;;;;21.17;8.75;;;6.10;99.90;;;;;;5089545;27;20072;-90
2021/12/16 06:34:11;;;;;;;23.88;8.57;;;6.10;99.90;;;;;;5095977;28;20046;-90
2021/12/16 06:36:41;;;;;;;20.55;8.65;;;7.00;99.90;;;;;;5105936;27;20035;-90
2021/12/16 06:39:08;;;;;;;17.42;8.70;;;6.90;99.90;;;;;;5096980;27;20043;-91
2021/12/16 06:41:37;;;;;;;22.83;9.05;;;6.70;99.90;;;;;;5098242;27;20332;-91
2021/12/16 06:44:13;;;;;;;14.73;8.32;;;6.40;99.90;;;;;;5094391;27;20031;-91
2021/12/16 06:46:41;;;;;;;18.25;8.77;;;6.00;99.90;;;;;;5089676;27;20078;-90
2021/12/16 06:49:10;;;;;;;20.23;8.43;;;6.50;99.90;;;;;;5103966;27;20031;-90
2021/12/16 06:51:53;;;;;;;26.73;9.95;;;6.00;99.90;;;;;;5090063;27;20053;-90
2021/12/16 06:54:27;;;;;;;26.55;9.45;;;5.90;99.90;;;;;;5092693;27;20149;-89
2021/12/16 06:57:18;;;;;;;18.77;9.43;;;6.20;99.90;;;;;;5108928;27;20069;-89
2021/12/16 06:59:54;;;;;;;22.50;8.18;;;7.10;99.90;;;;;;5103713;27;20049;-90
2021/12/16 07:02:42;;;;;;;17.58;8.55;;;6.40;99.90;;;;;;5100154;27;20039;-90
2021/12/16 07:05:13;;;;;;;19.23;8.35;;;6.00;99.90;;;;;;5117066;27;20039;-90
2021/12/16 07:07:41;;;;;;;26.30;8.48;;;5.90;99.90;;;;;;5102383;27;20341;-91
2021/12/16 07:10:11;;;;;;;19.13;8.18;;;6.60;99.90;;;;;;5098188;27;20548;-90
2021/12/16 07:12:39;;;;;;;16.98;7.95;;;5.90;99.90;;;;;;5091996;27;20051;-90
2021/12/16 07:15:09;;;;;;;25.08;8.07;;;6.40;99.90;;;;;;5127487;27;20106;-91
2021/12/16 07:17:35;;;;;;;20.63;8.23;;;5.90;99.90;;;;;;5093372;27;20545;-90
2021/12/16 07:20:01;;;;;;;21.38;8.70;;;6.90;99.90;;;;;;5091368;27;20039;-89
2021/12/16 07:22:27;;;;;;;23.83;8.43;;;5.80;99.90;;;;;;5098945;27;20534;-91
2021/12/16 07:24:53;;;;;;;20.27;8.65;;;6.30;99.90;;;;;;5090209;27;20085;-91
2021/12/16 07:27:19;;;;;;;18.73;7.93;;;5.70;99.90;;;;;;5090805;27;20122;-91
2021/12/16 07:29:45;;;;;;;18.95;7.78;;;6.50;99.90;;;;;;5093541;27;20042;-92
2021/12/16 07:32:10;;;;;;;20.38;8.20;;;6.20;99.90;;;;;;5118130;27;20050;-92
2021/12/16 07:34:36;;;;;;;24.42;8.95;;;6.00;99.90;;;;;;5120468;27;20070;-91
2021/12/16 07:37:06;;;;;;;19.45;9.60;;;5.60;99.90;;;;;;5102726;27;20079;-92
2021/12/16 07:39:39;;;;;;;20.20;8.15;;;5.60;99.90;;;;;;5101521;28;20111;-93
2021/12/16 07:42:14;;;;;;;18.75;8.40;;;5.60;99.90;;;;;;5113371;28;20044;-92
2021/12/16 07:44:41;;;;;;;19.02;8.55;;;5.60;99.90;;;;;;5094794;28;20044;-92
2021/12/16 07:47:11;;;;;;;17.25;8.60;;;5.60;99.90;;;;;;5097812;28;20039;-92
2021/12/16 07:49:40;;;;;;;24.45;10.05;;;6.30;99.90;;;;;;5089816;28;20035;-91
2021/12/16 07:52:09;;;;;;;19.08;9.00;;;6.30;99.90;;;;;;5085932;28;20043;-92
2021/12/16 07:54:37;;;;;;;19.73;8.27;;;6.50;99.90;;;;;;5091399;28;20389;-92
2021/12/16 07:57:05;;;;;;;16.85;8.50;;;5.70;99.90;;;;;;5103406;28;20095;-93
2021/12/16 07:59:33;;;;;;;22.80;9.25;;;5.70;99.90;;;;;;5093722;28;20039;-92
2021/12/16 08:02:00;;;;;;;29.70;11.02;;;5.90;99.90;;;;;;5095448;28;20036;-92
2021/12/16 08:04:29;;;;;;;24.98;11.05;;;6.40;99.90;;;;;;5088993;28;20118;-91
2021/12/16 08:07:05;;;;;;;21.30;9.80;;;6.20;99.90;;;;;;5104656;28;20046;-92
2021/12/16 08:09:35;;;;;;;22.98;10.63;;;5.80;99.90;;;;;;5084643;28;20067;-92
2021/12/16 08:12:02;;;;;;;24.98;11.60;;;5.90;99.90;;;;;;5091058;28;20047;-92
2021/12/16 08:14:28;;;;;;;31.88;11.32;;;6.40;99.90;;;;;;5092177;28;20544;-92
2021/12/16 08:16:54;;;;;;;20.38;10.52;;;5.90;99.90;;;;;;5082574;28;20118;-91
2021/12/16 08:19:20;;;;;;;24.33;11.07;;;6.00;99.90;;;;;;5087770;28;20096;-92
2021/12/16 08:21:49;;;;;;;26.60;10.98;;;6.00;99.90;;;;;;5086121;28;20035;-92
2021/12/16 08:24:16;;;;;;;29.00;11.25;;;6.70;99.90;;;;;;5091623;28;20032;-92
2021/12/16 08:26:45;;;;;;;27.55;11.18;;;6.80;99.90;;;;;;5093891;28;20039;-92
2021/12/16 08:29:11;;;;;;;32.83;12.32;;;6.00;99.90;;;;;;5096152;28;20127;-91
2021/12/16 08:31:39;;;;;;;33.15;13.18;;;6.60;99.90;;;;;;5090890;28;20035;-92
2021/12/16 08:34:06;;;;;;;30.48;12.38;;;6.20;99.90;;;;;;5086544;28;20032;-92
2021/12/16 08:36:33;;;;;;;32.85;12.80;;;7.00;99.90;;;;;;5091647;28;20046;-92
2021/12/16 08:39:01;;;;;;;34.55;12.55;;;6.80;99.90;;;;;;5092827;28;20043;-92
2021/12/16 08:41:33;;;;;;;30.55;12.38;;;7.40;99.90;;;;;;5098463;28;20047;-93
2021/12/16 08:44:02;;;;;;;31.95;12.82;;;7.10;99.90;;;;;;5098758;28;20051;-92
2021/12/16 08:46:34;;;;;;;37.20;14.55;;;6.40;99.90;;;;;;5117595;28;20047;-93
2021/12/16 08:49:01;;;;;;;39.00;13.65;;;6.20;99.90;;;;;;5089452;28;20047;-93
2021/12/16 08:51:31;;;;;;;33.33;14.52;;;6.80;99.90;;;;;;5110559;28;20438;-90
2021/12/16 08:53:59;;;;;;;31.95;13.60;;;7.40;99.90;;;;;;5093830;28;20047;-90
2021/12/16 08:56:27;;;;;;;38.05;14.10;;;6.40;99.90;;;;;;5094058;28;20057;-90
2021/12/16 08:58:54;;;;;;;39.83;15.15;;;6.70;99.90;;;;;;5097498;27;20398;-91
2021/12/16 09:01:22;;;;;;;34.03;14.48;;;7.10;99.90;;;;;;5095714;27;20045;-91
2021/12/16 09:03:53;;;;;;;39.05;15.88;;;7.10;99.90;;;;;;5107648;27;20406;-91
2021/12/16 09:06:19;;;;;;;37.97;15.82;;;7.30;99.90;;;;;;5096076;27;20047;-90
2021/12/16 09:08:46;;;;;;;37.40;15.18;;;7.50;99.90;;;;;;5116992;27;20123;-90
2021/12/16 09:11:18;;;;;;;32.63;14.40;;;6.50;99.90;;;;;;5099358;27;20040;-91
2021/12/16 09:13:44;;;;;;;36.63;16.33;;;6.60;99.90;;;;;;5120833;27;20047;-91
2021/12/16 09:16:13;;;;;;;48.70;17.02;;;7.60;99.90;;;;;;5097050;27;20042;-90
2021/12/16 09:18:41;;;;;;;71.45;17.70;;;6.70;99.90;;;;;;5096071;27;20035;-90
2021/12/16 09:21:12;;;;;;;50.38;18.00;;;6.60;99.90;;;;;;5114747;27;20040;-90
2021/12/16 09:23:40;;;;;;;75.45;19.38;;;5.80;99.90;;;;;;5096476;27;20047;-91
2021/12/16 09:26:07;;;;;;;72.57;19.38;;;6.70;99.90;;;;;;5097840;27;20507;-91
2021/12/16 09:28:34;;;;;;;57.63;17.88;;;6.70;99.90;;;;;;5094564;27;20092;-89
2021/12/16 09:31:01;;;;;;;58.35;17.83;;;7.60;99.90;;;;;;5097478;27;20051;-91
2021/12/16 09:33:28;;;;;;;44.35;17.85;;;7.60;99.90;;;;;;5093868;27;20176;-89
2021/12/16 09:36:00;;;;;;;74.25;20.13;;;7.70;99.90;;;;;;5094785;27;20036;-91
2021/12/16 09:38:28;;;;;;;86.35;20.17;;;7.60;99.90;;;;;;5090766;27;20055;-91
2021/12/16 09:40:56;;;;;;;118.72;20.23;;;7.50;99.90;;;;;;5111405;27;20048;-90
2021/12/16 09:43:32;;;;;;;54.28;17.42;;;6.80;99.90;;;;;;5100590;27;20047;-90
2021/12/16 09:46:01;;;;;;;76.82;15.75;;;6.90;99.90;;;;;;5104412;27;20061;-90
2021/12/16 09:48:31;;;;;;;75.78;17.25;;;6.90;99.90;;;;;;5092443;27;20065;-90
2021/12/16 09:50:59;;;;;;;28.88;15.85;;;6.30;99.90;;;;;;5103654;27;20035;-90
2021/12/16 09:53:27;;;;;;;70.50;17.63;;;6.90;99.90;;;;;;5122778;27;20118;-90
2021/12/16 09:55:59;;;;;;;34.63;16.17;;;7.60;99.90;;;;;;5123503;27;20054;-89
2021/12/16 09:58:33;;;;;;;177.07;21.52;;;7.90;99.90;;;;;;5106075;27;20188;-91
2021/12/16 10:01:00;;;;;;;112.55;18.75;;;7.00;99.90;;;;;;5123658;27;20035;-91
2021/12/16 10:03:31;;;;;;;42.55;15.18;;;7.00;99.90;;;;;;5110448;27;20051;-91
2021/12/16 10:05:57;;;;;;;39.93;15.30;;;6.40;99.90;;;;;;5106731;27;20110;-91
2021/12/16 10:08:24;;;;;;;44.00;14.38;;;7.90;99.90;;;;;;5102272;27;20717;-91
2021/12/16 10:10:49;;;;;;;37.55;14.50;;;7.20;99.90;;;;;;5126051;27;20047;-91
2021/12/16 10:13:22;;;;;;;65.53;14.82;;;8.00;99.90;;;;;;5100096;27;20111;-91
2021/12/16 10:18:20;;;;;;;41.42;14.65;;;7.10;99.90;;;;;;5124649;27;20078;-90
2021/12/16 10:20:57;;;;;;;47.53;15.48;;;7.70;99.90;;;;;;5103456;27;20382;-90
2021/12/16 10:23:24;;;;;;;27.55;15.15;;;7.20;99.90;;;;;;5103605;27;20041;-91
2021/12/16 10:25:58;;;;;;;46.78;15.70;;;7.30;99.90;;;;;;5110538;27;20035;-92
2021/12/16 10:28:32;;;;;;;59.95;16.25;;;7.30;99.90;;;;;;5101334;27;20475;-92
2021/12/16 10:31:08;;;;;;;170.13;21.27;;;7.40;99.90;;;;;;5109971;27;20043;-91
2021/12/16 10:33:50;;;;;;;153.55;20.05;;;6.80;99.90;;;;;;5107173;27;20152;-91
2021/12/16 10:36:18;;;;;;;129.23;19.73;;;7.40;99.90;;;;;;5123211;27;20050;-91
2021/12/16 10:39:05;;;;;;;65.97;15.88;;;7.40;99.90;;;;;;5107235;27;20123;-90
2021/12/16 10:41:39;;;;;;;54.58;15.57;;;7.50;99.90;;;;;;5113173;28;20051;-91
2021/12/16 10:44:18;;;;;;;229.25;24.60;;;8.00;99.90;;;;;;5115786;28;20032;-91
2021/12/16 10:47:02;;;;;;;219.95;24.55;;;8.30;99.90;;;;;;5090557;28;20054;-91
2021/12/16 10:49:35;;;;;;;28.60;15.55;;;7.50;99.90;;;;;;5100870;28;20043;-91
2021/12/16 10:52:13;;;;;;;38.30;14.93;;;8.30;99.90;;;;;;5113278;28;20048;-91
2021/12/16 10:54:42;;;;;;;55.17;14.55;;;7.60;99.90;;;;;;5098390;28;20047;-90
2021/12/16 10:57:25;;;;;;;79.00;16.23;;;7.70;99.90;;;;;;5093535;28;20140;-90
2021/12/16 11:00:12;;;;;;;34.10;14.48;;;7.10;99.90;;;;;;5117966;28;20054;-90
2021/12/16 11:02:39;;;;;;;77.45;14.30;;;7.70;99.90;;;;;;5096032;28;20130;-90
2021/12/16 11:05:11;;;;;;;79.20;15.85;;;7.70;99.90;;;;;;5092501;28;20036;-90
2021/12/16 11:07:44;;;;;;;40.63;14.27;;;7.80;99.90;;;;;;5110012;28;20040;-90
2021/12/16 11:10:18;;;;;;;48.47;14.02;;;8.70;99.90;;;;;;5092693;28;20040;-89
2021/12/16 11:12:57;;;;;;;38.50;15.05;;;8.10;99.90;;;;;;5102786;28;20036;-90
2021/12/16 11:15:37;;;;;;;39.80;14.45;;;7.80;99.90;;;;;;5096931;28;20043;-90
2021/12/16 11:18:11;;;;;;;107.63;18.77;;;8.20;99.90;;;;;;5103258;28;20036;-90
2021/12/16 11:20:56;;;;;;;30.35;14.13;;;7.30;99.90;;;;;;5093149;28;20746;-90
2021/12/16 11:23:40;;;;;;;41.72;15.40;;;7.90;99.90;;;;;;5088782;28;20150;-90
2021/12/16 11:26:09;;;;;;;49.85;15.55;;;7.90;99.90;;;;;;5094727;28;20047;-90
2021/12/16 11:28:43;;;;;;;57.38;16.90;;;8.00;99.90;;;;;;5072187;28;20039;-90
2021/12/16 11:31:16;;;;;;;59.30;16.33;;;8.00;99.90;;;;;;5081794;28;20108;-90
2021/12/16 11:33:48;;;;;;;48.92;14.98;;;8.00;99.90;;;;;;5093812;28;20043;-90
2021/12/16 11:36:54;;;;;;;67.80;17.33;;;8.10;99.90;;;;;;5094206;28;20606;-89
2021/12/16 11:39:24;;;;;;;90.45;17.50;;;8.10;99.90;;;;;;4969573;28;20040;-90
2021/12/16 11:42:02;;;;;;;46.78;15.38;;;8.10;99.90;;;;;;4986047;28;20144;-90
2021/12/16 11:44:34;;;;;;;54.58;16.02;;;9.10;99.90;;;;;;5030081;28;20396;-91
2021/12/16 11:47:17;;;;;;;72.85;16.35;;;8.80;99.90;;;;;;5072673;28;20052;-90
2021/12/16 11:49:46;;;;;;;67.13;16.45;;;8.20;99.90;;;;;;5072617;28;20066;-90
2021/12/16 11:52:19;;;;;;;50.85;15.45;;;8.40;99.90;;;;;;5089709;28;20076;-90
2021/12/16 11:54:50;;;;;;;48.90;14.80;;;8.30;99.90;;;;;;5075842;28;20518;-90
2021/12/16 11:57:44;;;;;;;70.90;14.55;;;8.30;99.90;;;;;;5088341;28;20043;-89
2021/12/16 12:00:21;;;;;;;83.30;15.98;;;8.30;99.90;;;;;;5090054;28;20484;-89
2021/12/16 12:02:52;;;;;;;51.70;14.43;;;8.40;99.90;;;;;;5079940;28;20069;-90
2021/12/16 12:05:19;;;;;;;129.75;18.13;;;8.30;99.90;;;;;;5078790;28;20070;-89
2021/12/16 12:07:50;;;;;;;42.90;14.20;;;8.40;99.90;;;;;;5095819;28;20039;-90
2021/12/16 12:10:32;;;;;;;47.83;15.32;;;8.40;99.90;;;;;;5097773;28;20570;-89
2021/12/16 12:13:02;;;;;;;73.72;16.10;;;8.40;99.90;;;;;;5083503;28;20047;-89
2021/12/16 12:15:28;;;;;;;57.72;15.13;;;8.80;99.90;;;;;;5077804;28;20092;-89
2021/12/16 12:17:56;;;;;;;110.60;18.92;;;8.50;99.90;;;;;;5081594;28;20078;-90
2021/12/16 12:20:33;;;;;;;50.65;16.33;;;8.50;99.90;;;;;;5094332;28;20070;-90
2021/12/16 12:23:00;;;;;;;84.25;17.58;;;8.50;99.90;;;;;;5076210;28;20051;-89
2021/12/16 12:25:26;;;;;;;106.40;18.30;;;8.50;99.90;;;;;;5081574;28;20044;-90
2021/12/16 12:27:52;;;;;;;54.83;16.88;;;8.60;99.90;;;;;;5095186;28;20048;-89
2021/12/16 12:30:19;;;;;;;53.85;17.63;;;9.00;99.90;;;;;;5073577;28;20050;-90
2021/12/16 12:32:48;;;;;;;64.70;16.40;;;8.50;99.90;;;;;;5097547;28;20052;-89
2021/12/16 12:35:27;;;;;;;50.17;16.33;;;9.40;99.90;;;;;;5079988;28;20047;-89
2021/12/16 12:37:57;;;;;;;53.30;15.85;;;8.60;99.90;;;;;;5083018;28;20119;-89
2021/12/16 12:40:29;;;;;;;62.70;17.17;;;8.60;99.90;;;;;;5082228;28;20202;-89
2021/12/16 12:42:56;;;;;;;55.67;17.65;;;8.60;99.90;;;;;;5083030;28;20130;-89
2021/12/16 12:45:27;;;;;;;90.30;18.02;;;8.60;99.90;;;;;;5103255;28;20040;-89
2021/12/16 12:47:57;;;;;;;43.63;16.05;;;8.60;99.90;;;;;;5091023;28;20048;-89
2021/12/16 12:50:30;;;;;;;87.90;18.38;;;8.70;99.90;;;;;;5083872;28;20052;-89
2021/12/16 12:53:09;;;;;;;79.05;17.73;;;8.60;99.90;;;;;;5089188;28;20118;-89
2021/12/16 12:55:38;;;;;;;81.45;17.38;;;9.20;99.90;;;;;;5088425;28;20080;-90
2021/12/16 12:58:22;;;;;;;76.88;18.67;;;8.60;99.90;;;;;;5101625;28;20035;-89
2021/12/16 13:00:48;;;;;;;51.08;16.63;;;8.60;99.90;;;;;;5101003;28;20438;-89
2021/12/16 13:03:18;;;;;;;61.97;16.42;;;8.70;99.90;;;;;;5083313;28;20526;-89
2021/12/16 13:05:53;;;;;;;80.95;17.83;;;8.60;99.90;;;;;;5084300;28;20038;-88
2021/12/16 13:08:27;;;;;;;50.88;16.98;;;8.60;99.90;;;;;;5082866;28;20507;-89
2021/12/16 13:10:58;;;;;;;46.03;16.42;;;8.60;99.90;;;;;;5083853;28;20040;-89
2021/12/16 13:13:32;;;;;;;69.57;18.83;;;8.50;99.90;;;;;;5083997;28;20039;-89
2021/12/16 13:27:41;;;;;;;46.80;16.25;;;9.30;99.90;;;;;;5100294;28;20511;-89
2021/12/16 13:32:55;;;;;;;56.60;16.23;;;8.80;99.90;;;;;;5099967;28;20051;-89
2021/12/16 13:35:33;;;;;;;61.58;16.77;;;8.80;99.90;;;;;;5081903;28;20438;-89
2021/12/16 13:38:05;;;;;;;56.72;15.75;;;8.80;99.90;;;;;;5065712;28;20043;-89
2021/12/16 13:40:34;;;;;;;53.95;15.18;;;8.80;99.90;;;;;;5086495;28;20210;-89
2021/12/16 13:43:12;;;;;;;56.15;16.50;;;9.10;99.90;;;;;;5103742;28;20036;-89
2021/12/16 13:45:58;;;;;;;60.95;15.00;;;8.80;99.90;;;;;;5097311;27;20042;-88
2021/12/16 13:49:01;;;;;;;44.25;13.40;;;8.80;99.90;;;;;;5063613;28;20105;-89
2021/12/16 14:03:27;;;;;;;42.78;12.00;;;9.20;99.90;;;;;;5100334;28;20059;-90
2021/12/16 14:06:11;;;;;;;42.30;12.95;;;8.70;99.90;;;;;;5086361;28;21128;-89
2021/12/16 14:08:47;;;;;;;43.17;12.07;;;9.10;99.90;;;;;;5101108;28;20046;-89
2021/12/16 14:18:24;;;;;;;50.75;12.93;;;8.70;99.90;;;;;;5099287;28;20040;-89
2021/12/16 14:23:48;;;;;;;42.95;13.13;;;8.70;99.90;;;;;;5097076;28;20061;-88
2021/12/16 14:37:22;;;;;;;51.75;12.60;;;8.80;99.90;;;;;;5097324;28;20059;-90
2021/12/16 14:40:15;;;;;;;46.33;10.95;;;8.60;99.90;;;;;;5083357;28;20047;-89
2021/12/16 14:45:28;;;;;;;43.53;12.40;;;8.60;99.90;;;;;;5094883;28;20590;-89
2021/12/16 14:50:42;;;;;;;36.65;11.80;;;8.60;99.90;;;;;;5094025;28;20063;-90
2021/12/16 14:53:16;;;;;;;39.67;12.35;;;8.60;99.90;;;;;;5075294;28;20031;-90
2021/12/16 14:55:42;;;;;;;54.70;13.32;;;8.60;99.90;;;;;;5095784;28;20040;-90
2021/12/16 14:58:08;;;;;;;35.05;12.50;;;8.60;99.90;;;;;;5094286;28;20043;-89
2021/12/16 15:00:41;;;;;;;44.55;13.52;;;8.70;99.90;;;;;;5094543;28;20052;-88
2021/12/16 15:03:17;;;;;;;46.20;13.35;;;8.70;99.90;;;;;;5078872;28;20044;-89
2021/12/16 15:05:54;;;;;;;46.08;13.23;;;8.60;99.90;;;;;;5096521;28;20127;-90
2021/12/16 15:08:45;;;;;;;42.50;13.82;;;9.00;99.90;;;;;;5079962;28;20383;-90
2021/12/16 15:11:25;;;;;;;40.88;12.05;;;8.60;99.90;;;;;;5075224;28;20054;-90
2021/12/16 15:13:56;;;;;;;43.67;12.88;;;8.60;99.90;;;;;;5092986;28;20040;-89
2021/12/16 15:44:53;;;;;;;33.38;14.23;;;8.50;99.90;;;;;;5082819;28;20120;-83
2021/12/16 15:47:20;;;;;;;48.53;17.08;;;8.50;99.90;;;;;;5069132;28;20138;-83
2021/12/16 15:49:46;;;;;;;42.33;15.02;;;8.50;99.90;;;;;;5072803;28;20039;-82
2021/12/16 15:52:13;;;;;;;46.88;15.65;;;8.50;99.90;;;;;;5070472;28;20177;-83
2021/12/16 15:54:44;;;;;;;40.30;15.88;;;8.50;99.90;;;;;;5070889;28;20051;-89
2021/12/16 15:57:11;;;;;;;42.33;15.60;;;8.50;99.90;;;;;;5074386;28;20112;-90
2021/12/16 15:59:50;;;;;;;40.55;15.75;;;8.50;99.90;;;;;;5072870;28;20035;-90
2021/12/16 16:02:17;;;;;;;38.05;14.82;;;8.50;99.90;;;;;;5077365;28;20039;-89
2021/12/16 16:04:43;;;;;;;40.20;16.23;;;8.50;99.90;;;;;;5093991;28;20454;-90
2021/12/16 16:07:13;;;;;;;48.00;17.35;;;8.50;99.90;;;;;;5091451;28;20539;-89
2021/12/16 16:09:46;;;;;;;36.25;16.10;;;8.50;99.90;;;;;;5096750;28;20043;-89
2021/12/16 16:12:18;;;;;;;46.75;17.83;;;8.50;99.90;;;;;;5093705;28;20050;-90
2021/12/16 16:14:54;;;;;;;41.05;17.33;;;8.50;99.90;;;;;;5093389;28;20032;-90
2021/12/16 16:17:24;;;;;;;49.70;18.10;;;8.50;99.90;;;;;;5090362;28;20855;-89
2021/12/16 16:19:52;;;;;;;43.25;18.55;;;8.50;99.90;;;;;;5077810;28;20134;-90
2021/12/16 16:22:19;;;;;;;53.75;19.27;;;8.50;99.90;;;;;;5077980;28;21041;-90
2021/12/16 16:24:49;;;;;;;50.90;17.92;;;8.50;99.90;;;;;;5075398;28;20485;-91
2021/12/16 16:27:19;;;;;;;67.55;19.77;;;8.50;99.90;;;;;;5076528;28;20077;-90
2021/12/16 16:29:49;;;;;;;58.50;19.73;;;8.50;99.90;;;;;;5076976;28;20093;-90
2021/12/16 16:32:15;;;;;;;62.83;20.55;;;9.20;99.90;;;;;;5075383;28;20047;-90
2021/12/16 16:34:53;;;;;;;87.20;21.33;;;8.50;99.90;;;;;;5080486;28;20442;-90
2021/12/16 16:37:32;;;;;;;67.38;20.63;;;8.50;99.90;;;;;;5090440;28;20048;-90
2021/12/16 16:40:09;;;;;;;66.63;21.27;;;8.50;99.90;;;;;;5074104;28;20120;-89
2021/12/16 16:42:37;;;;;;;75.35;22.50;;;8.60;99.90;;;;;;5089510;28;20535;-90
2021/12/16 16:45:07;;;;;;;77.35;21.80;;;8.60;99.90;;;;;;5079052;28;20126;-90